Time;durP1;ratioP1;P1;durP2;ratioP2;P2;SDS_P1;SDS_P2;PMS_P1;PMS_P2;Temp;Humidity;BMP_temperature;BMP_pressure;BME280_temperature;BME280_humidity;BME280_pressure;Samples;Min_cycle;Max_cycle;Signal;HPM_P1;HPM_P2
2023/07/24 00:00:16;;;;;;;1.05;1.00;;;;;;;17.98;100.00;99793.84;4992960;28;20079;-87
2023/07/24 00:02:42;;;;;;;1.42;1.38;;;;;;;18.00;100.00;99791.97;5034016;28;20041;-85
2023/07/24 00:05:09;;;;;;;0.47;0.47;;;;;;;17.91;100.00;99790.63;4985833;28;20049;-88
2023/07/24 00:07:36;;;;;;;0.70;0.70;;;;;;;17.88;100.00;99789.97;5003949;28;20134;-86
2023/07/24 00:10:04;;;;;;;0.85;0.85;;;;;;;17.88;100.00;99787.31;4966271;28;20548;-85
2023/07/24 00:12:31;;;;;;;0.90;0.90;;;;;;;17.86;100.00;99780.28;4996500;28;20434;-84
2023/07/24 00:14:58;;;;;;;0.80;0.80;;;;;;;17.83;100.00;99772.53;4987431;28;20050;-84
2023/07/24 00:17:25;;;;;;;1.95;1.25;;;;;;;17.81;100.00;99782.31;4987479;28;20043;-85
2023/07/24 00:19:54;;;;;;;1.13;1.10;;;;;;;17.80;100.00;99780.59;5008854;28;20485;-86
2023/07/24 00:22:20;;;;;;;1.33;1.17;;;;;;;17.80;100.00;99788.56;4988874;28;20122;-84
2023/07/24 00:24:47;;;;;;;0.90;0.90;;;;;;;17.83;100.00;99783.13;4988861;28;20092;-86
2023/07/24 00:27:14;;;;;;;1.33;1.33;;;;;;;17.89;100.00;99778.44;4985776;28;20147;-88
2023/07/24 00:29:41;;;;;;;1.95;1.48;;;;;;;17.87;100.00;99775.84;4990675;28;20046;-89
2023/07/24 00:32:07;;;;;;;1.48;1.48;;;;;;;17.87;100.00;99770.53;4994826;28;20103;-86
2023/07/24 00:34:34;;;;;;;1.05;1.05;;;;;;;17.83;100.00;99769.00;4978177;28;20038;-87
2023/07/24 00:37:01;;;;;;;1.15;1.10;;;;;;;17.75;100.00;99776.50;4999936;28;20574;-87
2023/07/24 00:39:28;;;;;;;1.00;1.00;;;;;;;17.72;100.00;99774.88;4994966;28;20048;-85
2023/07/24 00:41:55;;;;;;;1.35;1.10;;;;;;;17.73;100.00;99778.38;4995734;28;20061;-86
2023/07/24 00:44:22;;;;;;;1.38;1.33;;;;;;;17.73;100.00;99773.06;4979513;28;20476;-84
2023/07/24 00:46:49;;;;;;;1.60;1.25;;;;;;;17.75;100.00;99768.56;5017355;28;20030;-86
2023/07/24 00:49:15;;;;;;;0.98;0.98;;;;;;;17.81;100.00;99773.53;5009199;28;20069;-86
2023/07/24 00:51:44;;;;;;;1.42;1.33;;;;;;;17.83;100.00;99771.66;4987423;28;20061;-87
2023/07/24 00:54:12;;;;;;;2.35;1.33;;;;;;;17.86;100.00;99780.28;4998137;28;20048;-85
2023/07/24 00:56:40;;;;;;;1.42;1.15;;;;;;;17.89;100.00;99781.94;4996251;28;20042;-85
2023/07/24 00:59:07;;;;;;;1.70;1.60;;;;;;;17.92;100.00;99780.91;4996348;28;20117;-85
2023/07/24 01:01:33;;;;;;;2.15;1.88;;;;;;;17.96;100.00;99778.03;4973071;28;20474;-85
2023/07/24 01:04:02;;;;;;;2.05;1.88;;;;;;;17.96;100.00;99780.66;5014686;28;20038;-85
2023/07/24 01:06:29;;;;;;;2.22;2.10;;;;;;;17.98;100.00;99781.47;4996277;28;20037;-86
2023/07/24 01:08:56;;;;;;;1.77;1.67;;;;;;;18.03;100.00;99781.22;4983945;28;20038;-85
2023/07/24 01:11:31;;;;;;;1.70;1.60;;;;;;;18.05;100.00;99770.53;5014121;28;20054;-87
2023/07/24 01:14:15;;;;;;;2.65;1.95;;;;;;;18.08;100.00;99768.59;4999682;28;20034;-86
2023/07/24 01:16:43;;;;;;;2.28;2.17;;;;;;;18.07;100.00;99761.56;4997592;28;20034;-87
2023/07/24 01:19:37;;;;;;;2.88;2.38;;;;;;;18.10;100.00;99760.56;4998514;28;20042;-86
2023/07/24 01:22:29;;;;;;;2.13;1.98;;;;;;;18.10;100.00;99766.69;4968442;28;20100;-86
2023/07/24 01:25:35;;;;;;;2.53;2.20;;;;;;;18.10;100.00;99769.34;5018120;28;20528;-86
2023/07/24 01:28:02;;;;;;;5.43;2.42;;;;;;;18.08;100.00;99768.59;4995561;28;20118;-87
2023/07/24 01:30:28;;;;;;;2.65;2.45;;;;;;;18.08;100.00;99758.00;4993421;28;20067;-86
2023/07/24 01:32:55;;;;;;;2.50;2.35;;;;;;;18.12;100.00;99753.38;4986043;28;20033;-88
2023/07/24 01:35:22;;;;;;;2.33;2.22;;;;;;;18.09;100.00;99754.38;4976377;28;20544;-87
2023/07/24 01:37:49;;;;;;;2.80;2.53;;;;;;;18.10;100.00;99756.09;4978741;28;20826;-88
2023/07/24 01:40:16;;;;;;;2.90;2.70;;;;;;;18.06;100.00;99759.84;4995653;28;20069;-87
2023/07/24 01:42:43;;;;;;;3.03;2.80;;;;;;;17.97;100.00;99747.13;5004391;28;20125;-88
2023/07/24 01:45:11;;;;;;;2.95;2.75;;;;;;;17.95;100.00;99752.50;4994626;28;20080;-90
2023/07/24 01:47:38;;;;;;;2.60;2.40;;;;;;;17.90;100.00;99740.41;4974729;28;20038;-89
2023/07/24 01:50:05;;;;;;;2.85;2.75;;;;;;;17.95;100.00;99749.00;4973874;28;20073;-91
2023/07/24 01:52:32;;;;;;;2.42;2.33;;;;;;;18.05;100.00;99742.25;5000743;28;20081;-85
2023/07/24 01:54:58;;;;;;;3.35;3.05;;;;;;;18.06;100.00;99743.97;4999223;28;20506;-85
2023/07/24 01:57:25;;;;;;;4.22;3.28;;;;;;;18.06;100.00;99743.13;4999084;28;20136;-85
2023/07/24 01:59:51;;;;;;;2.97;2.72;;;;;;;18.09;100.00;99737.66;4982396;28;20061;-86
2023/07/24 02:02:18;;;;;;;3.38;3.13;;;;;;;18.08;100.00;99741.22;4981629;28;20042;-85
2023/07/24 02:04:44;;;;;;;3.08;2.88;;;;;;;18.19;100.00;99738.84;5016187;28;20544;-87
2023/07/24 02:07:11;;;;;;;3.03;2.78;;;;;;;18.16;100.00;99739.88;4998044;28;20030;-84
2023/07/24 02:09:37;;;;;;;3.65;3.45;;;;;;;18.18;100.00;99737.13;4998095;28;20116;-85
2023/07/24 02:12:05;;;;;;;2.95;2.70;;;;;;;18.15;100.00;99743.47;4998756;28;20052;-84
2023/07/24 02:14:31;;;;;;;3.08;2.88;;;;;;;18.11;100.00;99735.78;5011940;28;20034;-85
2023/07/24 02:16:58;;;;;;;3.20;2.92;;;;;;;18.04;100.00;99735.25;4982513;28;20038;-85
2023/07/24 02:19:24;;;;;;;4.57;3.30;;;;;;;17.96;100.00;99734.81;4980698;28;20053;-86
2023/07/24 02:21:51;;;;;;;3.40;3.10;;;;;;;17.95;100.00;99730.44;4981821;28;20070;-88
2023/07/24 02:24:17;;;;;;;3.08;2.90;;;;;;;17.94;100.00;99728.72;4991943;28;20038;-85
2023/07/24 02:26:44;;;;;;;3.80;3.60;;;;;;;17.86;100.00;99730.00;4998215;28;20136;-85
2023/07/24 02:29:10;;;;;;;3.47;3.20;;;;;;;17.75;100.00;99720.91;4981960;28;20145;-85
2023/07/24 02:31:37;;;;;;;3.35;3.10;;;;;;;17.58;100.00;99729.75;4994088;28;20049;-85
2023/07/24 02:34:04;;;;;;;3.05;2.85;;;;;;;17.48;100.00;99730.25;5017113;28;20049;-86
2023/07/24 02:36:30;;;;;;;3.65;3.45;;;;;;;17.41;100.00;99731.50;4965436;28;20046;-86
2023/07/24 02:38:57;;;;;;;3.90;3.50;;;;;;;17.42;100.00;99737.66;4994716;28;20046;-86
2023/07/24 02:41:24;;;;;;;3.20;3.00;;;;;;;17.39;100.00;99735.16;4991438;28;20030;-88
2023/07/24 02:43:51;;;;;;;3.45;3.15;;;;;;;17.40;100.00;99734.22;5000481;28;20124;-85
2023/07/24 02:46:18;;;;;;;5.28;3.67;;;;;;;17.43;100.00;99736.69;4973869;28;20388;-84
2023/07/24 02:48:44;;;;;;;4.15;3.83;;;;;;;17.50;100.00;99738.94;4999290;28;20129;-94
2023/07/24 02:51:11;;;;;;;3.63;3.33;;;;;;;17.52;100.00;99736.22;4990887;28;20049;-86
2023/07/24 02:53:38;;;;;;;3.33;3.13;;;;;;;17.52;100.00;99731.78;5003009;28;20029;-85
2023/07/24 02:56:04;;;;;;;3.20;3.00;;;;;;;17.52;100.00;99736.22;4982019;28;20053;-83
2023/07/24 02:58:31;;;;;;;4.22;3.05;;;;;;;17.52;100.00;99741.50;5008962;28;20048;-85
2023/07/24 03:01:06;;;;;;;3.47;3.28;;;;;;;17.50;100.00;99741.59;4998990;28;20095;-87
2023/07/24 03:03:33;;;;;;;3.05;2.85;;;;;;;17.54;100.00;99737.00;4994015;28;20473;-86
2023/07/24 03:06:00;;;;;;;4.18;3.08;;;;;;;17.59;100.00;99728.84;4995137;28;20048;-85
2023/07/24 03:08:27;;;;;;;3.60;3.13;;;;;;;17.59;100.00;99727.03;4974403;28;20038;-85
2023/07/24 03:10:54;;;;;;;2.47;2.25;;;;;;;17.60;100.00;99734.03;5008609;28;20041;-84
2023/07/24 03:13:20;;;;;;;3.13;2.70;;;;;;;17.62;100.00;99728.66;4980313;28;20066;-84
2023/07/24 03:15:54;;;;;;;4.28;2.67;;;;;;;17.66;100.00;99738.13;4997285;28;20496;-84
2023/07/24 03:18:21;;;;;;;2.97;2.78;;;;;;;17.68;100.00;99733.63;4997411;28;20046;-85
2023/07/24 03:20:48;;;;;;;2.95;2.70;;;;;;;17.73;100.00;99730.72;5004137;28;20491;-87
2023/07/24 03:23:14;;;;;;;2.67;2.58;;;;;;;17.72;100.00;99731.66;4997985;28;20062;-85
2023/07/24 03:25:41;;;;;;;3.78;2.35;;;;;;;17.73;100.00;99733.38;4972185;28;20042;-86
2023/07/24 03:28:08;;;;;;;2.70;2.58;;;;;;;17.78;100.00;99742.78;4990452;28;20042;-88
2023/07/24 03:30:34;;;;;;;2.40;2.30;;;;;;;17.79;100.00;99733.88;5008321;28;20038;-87
2023/07/24 03:33:02;;;;;;;2.78;2.65;;;;;;;17.83;100.00;99730.16;4970049;28;20049;-85
2023/07/24 03:35:31;;;;;;;2.85;2.65;;;;;;;17.86;100.00;99727.34;4980631;28;20061;-85
2023/07/24 03:37:58;;;;;;;2.40;2.30;;;;;;;17.89;100.00;99728.97;5005112;28;20066;-88
2023/07/24 03:40:24;;;;;;;2.15;2.03;;;;;;;17.90;100.00;99722.75;4996862;28;20045;-85
2023/07/24 03:42:51;;;;;;;1.88;1.75;;;;;;;17.91;100.00;99720.94;4996479;28;20117;-86
2023/07/24 03:45:17;;;;;;;3.38;2.28;;;;;;;17.93;100.00;99711.16;5003177;28;20038;-85
2023/07/24 03:47:44;;;;;;;2.00;1.90;;;;;;;17.95;100.00;99711.91;5008341;28;20069;-85
2023/07/24 03:50:10;;;;;;;1.98;1.88;;;;;;;17.98;100.00;99701.19;4980359;28;20042;-86
2023/07/24 03:52:37;;;;;;;2.58;2.33;;;;;;;17.98;100.00;99707.31;4997230;28;20099;-87
2023/07/24 03:55:05;;;;;;;3.67;1.88;;;;;;;17.99;100.00;99706.38;4968617;28;20042;-86
2023/07/24 03:57:31;;;;;;;2.22;1.65;;;;;;;18.01;100.00;99703.66;4996953;28;20043;-86
2023/07/24 03:59:58;;;;;;;1.40;1.38;;;;;;;17.98;100.00;99699.38;5000496;28;20046;-85
2023/07/24 04:02:25;;;;;;;1.70;1.60;;;;;;;17.88;100.00;99695.47;4996168;28;20137;-85
2023/07/24 04:04:51;;;;;;;1.80;1.70;;;;;;;17.74;100.00;99695.38;4989606;28;20120;-86
2023/07/24 04:07:18;;;;;;;1.67;1.58;;;;;;;17.61;100.00;99695.19;4988585;28;20038;-85
2023/07/24 04:09:44;;;;;;;2.30;1.80;;;;;;;17.52;100.00;99688.59;4997272;28;20105;-88
2023/07/24 04:12:11;;;;;;;1.50;1.42;;;;;;;17.57;100.00;99691.00;5005231;28;20053;-86
2023/07/24 04:14:37;;;;;;;1.42;1.38;;;;;;;17.55;100.00;99672.56;4992730;28;20477;-89
2023/07/24 04:17:04;;;;;;;1.48;1.42;;;;;;;17.51;100.00;99665.72;4990894;28;20037;-89
2023/07/24 04:19:31;;;;;;;1.95;1.42;;;;;;;17.48;100.00;99664.09;4988907;28;20620;-87
2023/07/24 04:21:57;;;;;;;1.60;1.50;;;;;;;17.47;100.00;99666.81;4991310;28;20030;-85
2023/07/24 04:24:27;;;;;;;3.33;1.40;;;;;;;17.50;100.00;99672.78;4993750;28;20046;-88
2023/07/24 04:26:53;;;;;;;2.13;1.65;;;;;;;17.52;100.00;99673.59;4996499;28;20084;-88
2023/07/24 04:29:23;;;;;;;2.95;1.60;;;;;;;17.55;100.00;99663.75;4978635;28;20050;-86
2023/07/24 04:31:51;;;;;;;2.17;1.63;;;;;;;17.51;100.00;99671.88;4989534;28;20240;-85
2023/07/24 04:34:17;;;;;;;1.83;1.73;;;;;;;17.48;100.00;99661.47;4997857;28;20064;-86
2023/07/24 04:36:44;;;;;;;1.77;1.67;;;;;;;17.44;100.00;99653.75;5004632;28;20061;-85
2023/07/24 04:39:10;;;;;;;1.58;1.40;;;;;;;17.40;100.00;99657.50;4962223;28;20042;-84
2023/07/24 04:41:37;;;;;;;4.80;1.60;;;;;;;17.42;100.00;99660.94;4979917;28;20038;-85
2023/07/24 04:44:04;;;;;;;5.10;1.65;;;;;;;17.41;100.00;99651.28;4992690;28;20048;-85
2023/07/24 04:46:30;;;;;;;4.65;1.55;;;;;;;17.41;100.00;99649.47;4998249;28;20049;-86
2023/07/24 04:48:57;;;;;;;1.60;1.40;;;;;;;17.43;100.00;99657.31;5001885;28;20121;-91
2023/07/24 04:51:24;;;;;;;3.70;1.67;;;;;;;17.49;100.00;99647.28;5020824;28;20097;-85
2023/07/24 04:53:50;;;;;;;1.52;1.50;;;;;;;17.53;100.00;99640.91;4988489;28;20419;-85
2023/07/24 04:56:17;;;;;;;1.52;1.42;;;;;;;17.56;100.00;99646.94;4983882;28;20034;-85
2023/07/24 04:58:43;;;;;;;3.40;1.25;;;;;;;17.61;100.00;99640.47;5014006;28;20038;-85
2023/07/24 05:01:10;;;;;;;1.92;1.83;;;;;;;17.66;100.00;99630.50;4994798;28;20041;-85
2023/07/24 05:03:36;;;;;;;3.85;1.48;;;;;;;17.67;100.00;99612.81;4967839;28;20037;-85
2023/07/24 05:06:03;;;;;;;1.65;1.55;;;;;;;17.67;100.00;99618.13;4997913;28;20093;-87
2023/07/24 05:08:29;;;;;;;1.73;1.50;;;;;;;17.69;100.00;99611.78;4987398;28;20042;-88
2023/07/24 05:10:59;;;;;;;1.98;1.40;;;;;;;17.71;100.00;99608.22;4994761;28;20041;-86
2023/07/24 05:13:27;;;;;;;1.42;1.40;;;;;;;17.78;100.00;99604.28;4975212;28;20477;-86
2023/07/24 05:15:54;;;;;;;1.63;1.52;;;;;;;17.88;100.00;99617.88;4995128;28;20096;-85
2023/07/24 05:18:20;;;;;;;1.70;1.38;;;;;;;18.07;100.00;99618.56;4992086;28;20074;-84
2023/07/24 05:20:51;;;;;;;1.90;1.80;;;;;;;18.37;100.00;99614.22;4991676;28;20050;-85
2023/07/24 05:23:18;;;;;;;2.00;1.60;;;;;;;18.58;100.00;99605.03;4978750;28;20053;-86
2023/07/24 05:25:45;;;;;;;3.67;1.20;;;;;;;18.73;100.00;99605.91;4968633;28;20128;-87
2023/07/24 05:28:11;;;;;;;2.28;1.20;;;;;;;18.82;100.00;99610.66;5011541;28;20061;-84
2023/07/24 05:30:38;;;;;;;1.20;1.10;;;;;;;18.87;100.00;99605.09;4991051;28;20096;-85
2023/07/24 05:33:05;;;;;;;1.45;1.35;;;;;;;18.93;100.00;99618.00;4979765;28;20034;-85
2023/07/24 05:35:31;;;;;;;1.85;1.48;;;;;;;18.97;100.00;99624.00;4994514;28;20046;-85
2023/07/24 05:37:58;;;;;;;2.63;1.55;;;;;;;18.99;100.00;99616.78;4989072;28;20038;-85
2023/07/24 05:40:24;;;;;;;2.33;1.23;;;;;;;18.90;100.00;99620.84;4991312;28;20038;-87
2023/07/24 05:42:51;;;;;;;1.27;1.13;;;;;;;18.83;100.00;99617.66;4972226;28;20042;-86
2023/07/24 05:45:17;;;;;;;1.38;1.27;;;;;;;18.76;100.00;99631.38;5001800;28;20038;-89
2023/07/24 05:47:44;;;;;;;2.53;1.65;;;;;;;18.71;100.00;99612.25;4996099;28;20413;-86
2023/07/24 05:50:13;;;;;;;1.40;1.30;;;;;;;18.55;100.00;99594.63;5000174;28;20037;-84
2023/07/24 05:52:39;;;;;;;3.92;1.17;;;;;;;18.37;100.00;99588.59;4971826;28;20042;-84
2023/07/24 05:55:07;;;;;;;2.80;1.52;;;;;;;18.09;100.00;99603.44;5009863;28;20049;-88
2023/07/24 05:57:33;;;;;;;1.60;1.25;;;;;;;17.92;100.00;99614.09;5000519;28;20048;-89
2023/07/24 06:00:00;;;;;;;1.85;1.60;;;;;;;17.86;100.00;99618.81;4993838;28;20138;-85
2023/07/24 06:02:26;;;;;;;2.35;1.52;;;;;;;17.86;100.00;99615.31;4995648;28;20038;-86
2023/07/24 06:04:53;;;;;;;5.78;1.50;;;;;;;17.92;100.00;99608.81;4982870;28;20037;-85
2023/07/24 06:07:19;;;;;;;2.05;1.60;;;;;;;17.99;100.00;99600.47;4981970;28;20129;-86
2023/07/24 06:09:46;;;;;;;1.40;1.30;;;;;;;18.11;100.00;99596.25;4963592;28;20499;-85
2023/07/24 06:12:12;;;;;;;1.45;1.35;;;;;;;18.18;100.00;99594.94;4988744;28;20151;-87
2023/07/24 06:14:39;;;;;;;2.13;1.40;;;;;;;18.26;100.00;99598.97;4982139;28;20046;-85
2023/07/24 06:17:06;;;;;;;2.08;1.58;;;;;;;18.25;100.00;99592.81;4998408;28;20046;-85
2023/07/24 06:19:35;;;;;;;1.85;1.60;;;;;;;18.28;100.00;99578.56;4999416;28;20075;-85
2023/07/24 06:22:03;;;;;;;1.85;1.75;;;;;;;18.36;100.00;99584.25;4984777;28;20052;-84
2023/07/24 06:24:29;;;;;;;2.80;1.40;;;;;;;18.50;100.00;99571.03;5002522;28;20476;-85
2023/07/24 06:26:58;;;;;;;1.98;1.80;;;;;;;18.63;100.00;99563.22;5005807;28;20068;-85
2023/07/24 06:29:28;;;;;;;1.77;1.60;;;;;;;18.72;100.00;99558.28;4999944;28;20034;-86
2023/07/24 06:31:54;;;;;;;2.22;1.42;;;;;;;18.85;100.00;99556.59;4999292;28;20046;-86
2023/07/24 06:34:21;;;;;;;2.50;1.40;;;;;;;18.89;100.00;99547.56;5000422;28;20048;-84
2023/07/24 06:36:49;;;;;;;1.63;1.52;;;;;;;18.94;100.00;99549.91;4998945;28;20048;-84
2023/07/24 06:39:16;;;;;;;1.88;1.15;;;;;;;19.00;100.00;99546.88;4982797;28;20049;-85
2023/07/24 06:41:43;;;;;;;1.95;1.75;;;;;;;18.97;100.00;99544.44;4982458;28;20564;-85
2023/07/24 06:44:10;;;;;;;2.25;1.90;;;;;;;18.97;100.00;99544.44;5015041;28;20096;-85
2023/07/24 06:46:36;;;;;;;1.70;1.60;;;;;;;18.98;100.00;99554.94;4998448;28;20125;-85
2023/07/24 06:49:03;;;;;;;2.03;1.83;;;;;;;19.04;100.00;99555.50;4997285;28;20049;-89
2023/07/24 06:51:30;;;;;;;2.28;1.48;;;;;;;19.09;100.00;99556.09;5011448;28;20109;-89
2023/07/24 06:53:56;;;;;;;1.48;1.30;;;;;;;19.16;100.00;99555.59;5024875;28;20044;-84
2023/07/24 06:56:23;;;;;;;4.05;1.70;;;;;;;19.21;100.00;99557.94;5016442;28;20044;-85
2023/07/24 06:58:49;;;;;;;3.88;1.80;;;;;;;19.24;100.00;99551.59;4998464;28;20038;-85
2023/07/24 07:01:16;;;;;;;2.38;1.73;;;;;;;19.27;100.00;99562.88;4997826;28;20461;-85
2023/07/24 07:03:42;;;;;;;1.85;1.75;;;;;;;19.25;100.00;99570.06;4981344;28;20670;-88
2023/07/24 07:06:10;;;;;;;2.38;2.05;;;;;;;19.28;100.00;99564.59;4978442;28;20045;-85
2023/07/24 07:08:37;;;;;;;3.22;1.35;;;;;;;19.25;100.00;99569.22;4982244;28;20052;-86
2023/07/24 07:11:04;;;;;;;2.72;1.83;;;;;;;19.23;100.00;99558.72;4982587;28;20052;-86
2023/07/24 07:13:30;;;;;;;2.17;1.63;;;;;;;19.23;100.00;99564.03;4998040;28;20052;-86
2023/07/24 07:15:57;;;;;;;1.70;1.60;;;;;;;19.19;100.00;99559.88;4997065;28;20069;-86
2023/07/24 07:18:24;;;;;;;1.77;1.67;;;;;;;19.14;100.00;99570.75;4982989;28;20054;-87
2023/07/24 07:20:53;;;;;;;1.98;1.85;;;;;;;19.07;100.00;99568.56;4947491;28;20070;-87
2023/07/24 07:23:21;;;;;;;1.80;1.70;;;;;;;18.99;100.00;99569.03;4937478;29;20098;-86
2023/07/24 07:25:49;;;;;;;2.65;2.20;;;;;;;18.88;100.00;99574.97;4939544;29;20066;-87
2023/07/24 07:28:17;;;;;;;2.83;2.35;;;;;;;18.70;100.00;99582.25;4940547;29;20047;-87
2023/07/24 07:30:44;;;;;;;4.18;2.58;;;;;;;18.45;100.00;99588.16;4936178;28;20042;-89
2023/07/24 07:33:10;;;;;;;3.47;2.47;;;;;;;18.27;100.00;99598.03;4914365;29;20675;-86
2023/07/24 07:35:38;;;;;;;3.13;2.67;;;;;;;18.07;100.00;99596.50;4931260;29;20049;-86
2023/07/24 07:38:04;;;;;;;2.45;2.17;;;;;;;17.87;100.00;99587.88;4931447;29;20050;-89
2023/07/24 07:40:31;;;;;;;5.43;2.63;;;;;;;17.76;100.00;99582.34;4938971;29;20043;-87
2023/07/24 07:42:58;;;;;;;3.67;2.60;;;;;;;17.68;100.00;99588.91;4924763;29;20078;-86
2023/07/24 07:45:25;;;;;;;4.03;2.88;;;;;;;17.63;100.00;99580.38;4926618;29;20047;-87
2023/07/24 07:47:53;;;;;;;6.47;2.95;;;;;;;17.47;100.00;99593.59;4939546;29;20036;-87
2023/07/24 07:50:19;;;;;;;3.35;2.90;;;;;;;17.28;100.00;99588.44;4918634;29;20051;-88
2023/07/24 07:52:46;;;;;;;5.13;2.92;;;;;;;17.13;100.00;99584.84;4940467;29;20126;-87
2023/07/24 07:55:13;;;;;;;4.03;2.47;;;;;;;17.03;100.00;99579.19;4945659;28;20122;-87
2023/07/24 07:57:40;;;;;;;4.60;3.28;;;;;;;16.98;100.00;99569.78;4951023;28;20035;-87
2023/07/24 08:00:07;;;;;;;4.85;2.78;;;;;;;16.98;100.00;99577.72;4956719;29;20126;-85
2023/07/24 08:02:34;;;;;;;4.15;3.20;;;;;;;17.04;100.00;99574.75;4925431;29;20077;-86
2023/07/24 08:05:01;;;;;;;7.30;3.35;;;;;;;17.15;100.00;99579.47;4938086;28;20046;-87
2023/07/24 08:07:28;;;;;;;4.50;3.42;;;;;;;17.30;100.00;99580.41;4941304;29;20390;-87
2023/07/24 08:09:54;;;;;;;4.25;3.33;;;;;;;17.48;100.00;99573.28;4933343;28;20039;-86
2023/07/24 08:12:21;;;;;;;4.80;2.92;;;;;;;17.65;100.00;99572.34;4939809;29;20500;-84
2023/07/24 08:14:47;;;;;;;6.18;3.92;;;;;;;17.81;100.00;99577.66;4923719;29;20039;-86
2023/07/24 08:17:14;;;;;;;3.60;3.05;;;;;;;17.93;100.00;99573.47;4938819;29;20093;-84
2023/07/24 08:19:41;;;;;;;3.00;2.40;;;;;;;18.05;100.00;99577.22;4940674;29;20055;-86
2023/07/24 08:22:08;;;;;;;2.67;2.33;;;;;;;18.15;100.00;99581.06;4921246;29;20039;-86
2023/07/24 08:24:38;;;;;;;3.28;2.97;;;;;;;18.21;100.00;99579.84;4964598;28;20043;-86
2023/07/24 08:27:05;;;;;;;3.95;2.20;;;;;;;18.16;100.00;99591.56;4960734;28;20049;-87
2023/07/24 08:29:33;;;;;;;2.90;2.70;;;;;;;18.04;100.00;99583.44;4940319;29;20077;-85
2023/07/24 08:31:59;;;;;;;4.43;2.03;;;;;;;17.99;100.00;99581.94;4941031;29;20051;-84
2023/07/24 08:34:26;;;;;;;2.90;2.67;;;;;;;17.85;100.00;99585.31;4938423;29;20066;-85
2023/07/24 08:36:53;;;;;;;6.47;2.63;;;;;;;17.77;100.00;99582.25;4936293;29;20135;-85
2023/07/24 08:39:20;;;;;;;3.70;2.65;;;;;;;17.76;100.00;99585.00;4938573;29;20043;-85
2023/07/24 08:41:47;;;;;;;3.65;2.53;;;;;;;17.91;100.00;99581.47;4919220;29;20094;-86
2023/07/24 08:44:14;;;;;;;7.65;2.97;;;;;;;18.10;100.00;99573.34;4921615;29;20055;-85
2023/07/24 08:46:45;;;;;;;3.05;2.70;;;;;;;18.42;100.00;99567.13;4914089;29;20039;-85
2023/07/24 08:49:15;;;;;;;6.32;2.88;;;;;;;19.04;100.00;99572.25;4942202;29;20046;-85
2023/07/24 08:51:42;;;;;;;6.82;2.13;;;;;;;20.29;100.00;99555.50;4945630;29;20090;-88
2023/07/24 08:54:09;;;;;;;2.53;2.33;;;;;;;21.52;100.00;99567.41;4927695;29;20043;-87
2023/07/24 08:56:39;;;;;;;2.95;2.53;;;;;;;22.48;98.76;99565.75;4924644;29;20094;-85
2023/07/24 08:59:06;;;;;;;5.85;2.70;;;;;;;22.85;96.85;99565.56;4939045;29;20039;-86
2023/07/24 09:01:35;;;;;;;3.60;2.25;;;;;;;23.25;91.03;99566.97;4915201;29;20435;-84
2023/07/24 09:04:02;;;;;;;4.47;3.33;;;;;;;22.51;93.83;99573.50;4942199;29;20051;-84
2023/07/24 09:06:28;;;;;;;3.08;2.45;;;;;;;21.87;96.76;99568.50;4938457;29;20090;-84
2023/07/24 09:08:55;;;;;;;4.70;2.88;;;;;;;21.27;98.50;99563.84;4935792;29;20521;-85
2023/07/24 09:11:22;;;;;;;3.30;3.03;;;;;;;20.87;100.00;99558.69;4921023;29;20051;-85
2023/07/24 09:13:49;;;;;;;4.72;3.42;;;;;;;20.54;100.00;99567.97;4938163;29;20122;-87
2023/07/24 09:16:27;;;;;;;3.40;3.10;;;;;;;20.53;100.00;99568.09;4921082;29;20080;-85
2023/07/24 09:18:56;;;;;;;3.35;3.05;;;;;;;20.59;100.00;99567.66;4923460;29;20049;-86
2023/07/24 09:21:33;;;;;;;4.68;3.60;;;;;;;20.73;100.00;99569.41;4938494;29;20467;-86
2023/07/24 09:24:15;;;;;;;3.33;3.03;;;;;;;20.85;100.00;99568.56;4944750;29;20054;-85
2023/07/24 09:26:53;;;;;;;4.10;3.70;;;;;;;20.90;100.00;99565.56;4924940;28;20375;-86
2023/07/24 09:29:20;;;;;;;3.80;3.50;;;;;;;20.93;99.20;99570.69;4941874;29;20067;-86
2023/07/24 09:31:48;;;;;;;3.35;3.05;;;;;;;21.15;100.00;99557.56;4941824;29;20043;-88
2023/07/24 09:34:19;;;;;;;4.10;3.65;;;;;;;21.62;96.49;99564.97;4926351;29;20114;-84
2023/07/24 09:36:46;;;;;;;7.40;2.97;;;;;;;21.79;95.04;99561.06;4926227;29;20078;-85
2023/07/24 09:39:13;;;;;;;3.47;3.17;;;;;;;22.02;92.77;99572.72;4941806;29;20118;-85
2023/07/24 09:41:40;;;;;;;4.10;3.03;;;;;;;21.88;93.89;99575.53;4940160;29;20046;-85
2023/07/24 09:44:08;;;;;;;4.13;3.67;;;;;;;21.71;95.88;99572.28;4941981;29;20050;-87
2023/07/24 09:46:35;;;;;;;5.65;3.92;;;;;;;21.76;93.16;99577.28;4942159;29;20094;-86
2023/07/24 09:49:03;;;;;;;4.30;3.90;;;;;;;21.30;95.21;99568.97;4941534;29;20099;-87
2023/07/24 09:51:31;;;;;;;4.57;4.18;;;;;;;21.09;96.55;99574.00;4941843;29;20039;-85
2023/07/24 09:54:19;;;;;;;4.00;3.80;;;;;;;21.20;95.58;99572.38;4924829;29;20043;-86
2023/07/24 09:56:46;;;;;;;3.33;3.05;;;;;;;21.40;93.65;99569.13;4925424;29;20079;-85
2023/07/24 09:59:14;;;;;;;4.20;3.80;;;;;;;21.61;93.07;99572.09;4925956;29;20098;-87
2023/07/24 10:01:42;;;;;;;3.90;3.40;;;;;;;21.59;92.55;99565.19;4958941;29;20086;-86
2023/07/24 10:04:09;;;;;;;3.45;3.25;;;;;;;21.36;93.99;99562.34;4941522;29;20047;-85
2023/07/24 10:06:36;;;;;;;4.35;3.95;;;;;;;21.53;94.33;99541.66;4921126;29;20165;-88
2023/07/24 10:09:03;;;;;;;3.80;3.50;;;;;;;22.01;92.78;99546.19;4918745;29;20039;-86
2023/07/24 10:11:30;;;;;;;4.15;3.45;;;;;;;22.45;90.70;99536.66;4922001;29;20463;-88
2023/07/24 10:13:57;;;;;;;3.72;3.33;;;;;;;23.12;87.46;99541.19;4933374;29;20102;-86
2023/07/24 10:16:25;;;;;;;4.50;3.00;;;;;;;23.70;85.78;99542.00;4940255;29;20062;-86
2023/07/24 10:18:52;;;;;;;4.40;3.53;;;;;;;25.05;81.26;99532.47;4939826;29;20074;-85
2023/07/24 10:21:19;;;;;;;3.05;2.83;;;;;;;26.72;71.05;99533.50;4940661;29;20118;-85
2023/07/24 10:23:47;;;;;;;3.15;2.88;;;;;;;27.48;70.56;99530.81;4933313;28;20133;-88
2023/07/24 10:26:15;;;;;;;3.05;2.75;;;;;;;27.32;64.74;99518.84;4922136;29;20505;-85
2023/07/24 10:28:42;;;;;;;2.72;2.45;;;;;;;25.33;70.53;99543.44;4941173;29;20039;-85
2023/07/24 10:31:20;;;;;;;2.20;2.08;;;;;;;24.75;73.11;99533.31;4939751;29;20660;-86
2023/07/24 10:33:47;;;;;;;2.95;2.75;;;;;;;25.08;72.77;99525.97;4958265;29;20047;-87
2023/07/24 10:36:19;;;;;;;3.05;2.85;;;;;;;24.88;72.96;99515.19;4920487;29;20047;-86
2023/07/24 10:38:48;;;;;;;2.97;2.77;;;;;;;24.80;73.12;99519.50;4936420;28;20070;-85
2023/07/24 10:41:15;;;;;;;2.78;2.58;;;;;;;24.72;74.31;99517.53;4940368;29;20312;-90
2023/07/24 10:43:52;;;;;;;2.90;2.72;;;;;;;24.65;71.41;99514.50;4923186;29;20042;-86
2023/07/24 10:46:21;;;;;;;3.25;2.60;;;;;;;24.12;72.15;99507.41;4937691;29;20134;-85
2023/07/24 10:48:51;;;;;;;4.00;3.40;;;;;;;23.63;73.55;99506.94;4940886;28;20069;-84
2023/07/24 10:51:18;;;;;;;2.95;2.75;;;;;;;23.69;74.84;99495.75;4949691;29;20099;-94
2023/07/24 10:53:49;;;;;;;3.40;3.05;;;;;;;24.09;73.97;99503.16;4938859;29;20094;-84
2023/07/24 10:56:18;;;;;;;4.03;3.63;;;;;;;24.07;71.93;99498.91;4940237;29;20614;-86
2023/07/24 10:58:54;;;;;;;;;;;;;;;;;;;;;
2023/07/24 11:01:21;;;;;;;3.80;3.60;;;;;;;23.39;72.06;99494.63;4935380;29;20054;-84
2023/07/24 11:03:50;;;;;;;5.32;4.78;;;;;;;23.03;73.71;99509.91;4925866;29;20158;-86
2023/07/24 11:06:22;;;;;;;4.07;3.78;;;;;;;22.90;73.46;99504.69;4940157;29;20150;-86
2023/07/24 11:08:57;;;;;;;4.50;4.10;;;;;;;22.97;74.22;99507.72;4939858;29;20038;-87
2023/07/24 11:11:36;;;;;;;4.75;4.07;;;;;;;23.13;74.13;99497.53;4934347;29;20043;-86
2023/07/24 11:14:04;;;;;;;4.10;3.80;;;;;;;23.17;74.65;99502.69;4922716;29;20047;-85
2023/07/24 11:16:32;;;;;;;4.63;4.32;;;;;;;23.51;72.99;99499.94;4936753;29;20094;-85
2023/07/24 11:18:59;;;;;;;4.15;3.80;;;;;;;23.58;71.64;99480.63;4923583;28;20482;-84
2023/07/24 11:21:26;;;;;;;4.53;4.07;;;;;;;23.48;72.52;99497.50;4955626;28;21317;-89
2023/07/24 11:23:55;;;;;;;4.60;3.53;;;;;;;23.22;73.84;99481.75;4954324;28;20550;-84
2023/07/24 11:26:26;;;;;;;5.95;4.20;;;;;;;23.21;73.66;99490.78;4943641;29;20053;-85
2023/07/24 11:28:54;;;;;;;4.28;3.88;;;;;;;23.20;75.17;99486.41;4946375;29;20134;-86
2023/07/24 11:31:21;;;;;;;5.45;4.60;;;;;;;23.33;75.04;99489.75;4952002;28;20043;-86